MGRT

Details ICAO MGRT
Name RETALHULEU
Region Guatemala
Timezone America/Guatemala (UTC-6.0)
Plans Departing 5
Arriving 5
Stats Elevation 656 ft / 200 m (AMSL)
Location 14.521016° -91.697251°
Runways 1
Magnetic Variation 1.620° E
Sunrise 2018-05-27 11:38:29 UTC / 2018-05-27 05:38:29 Local
Sunset 2018-05-28 00:32:21 UTC / 2018-05-27 18:32:21 Local
Advertisement - Login to hide

Runways

ID Width Length Bearing (true) Bearing (mag) Surface Threshold Offset Overrun Length
04 100 ft / 30 m 5,081 ft / 1,549 m 49.64° 48.02° Asphalt 0 ft / 0 m 0 ft / 0 m
22 100 ft / 30 m 5,081 ft / 1,549 m 229.64° 228.02° Asphalt 0 ft / 0 m 0 ft / 0 m

Map

Weather


0- 5 10 15 20 25 30 35+ Temperature / ° C

Clouds and Precipitation
Forecast for 2018-05-27 18:00 UTC. Updated an hour ago

Ground ~20,000 ft ~40,000 ft Winds

METAR

MGRT 271800Z 00000KT 9999 SCT018 BKN090 28/24 Q1013 A2991 VOL. STA. MARIA Y SANTIAGUITO EN ACTIVIDAD

TAF

Not found

Frequencies

Tower 118.80 MHz TWR
Warning: Do not use this data for real-world aviation or navigation. No guarantee of current accuracy is given.